Time;durP1;ratioP1;P1;durP2;ratioP2;P2;SDS_P1;SDS_P2;PMS_P1;PMS_P2;Temp;Humidity;BMP_temperature;BMP_pressure;BME280_temperature;BME280_humidity;BME280_pressure;Samples;Min_cycle;Max_cycle;Signal;HPM_P1;HPM_P2
2021/12/17 00:04:57;;;;;;;29.00;17.67;;;5.60;99.90;;;5.54;81.53;103173.16;4934066;29;20251;-67
2021/12/17 00:07:28;;;;;;;45.03;19.05;;;5.60;99.90;;;5.53;81.39;103176.81;4937741;29;20253;-68
2021/12/17 00:10:00;;;;;;;31.45;15.30;;;5.50;99.90;;;5.55;81.32;103179.38;4938708;29;20308;-69
2021/12/17 00:12:31;;;;;;;39.45;16.63;;;5.60;99.90;;;5.67;81.10;103194.56;4946987;29;20580;-68
2021/12/17 00:15:01;;;;;;;30.42;15.85;;;5.60;99.90;;;5.66;80.60;103179.44;4957536;28;20198;-69
2021/12/17 00:17:34;;;;;;;29.85;16.85;;;5.60;99.90;;;5.76;80.84;103171.56;4957000;28;20191;-70
2021/12/17 00:48:37;;;;;;;32.42;15.48;;;5.70;99.90;;;5.58;80.77;103180.00;4957624;28;20226;-70
2021/12/17 00:54:00;;;;;;;30.52;14.02;;;5.70;99.90;;;5.70;80.08;103172.88;4972925;28;20198;-68
2021/12/17 00:56:29;;;;;;;32.35;17.08;;;5.70;99.90;;;5.60;80.64;103169.16;4957797;28;20187;-69
2021/12/17 00:58:58;;;;;;;29.42;14.77;;;5.60;99.90;;;5.69;80.31;103180.06;4957510;28;20184;-70
2021/12/17 01:01:27;;;;;;;31.88;13.68;;;5.60;99.90;;;5.69;80.24;103182.75;4958813;28;20223;-68
2021/12/17 01:04:00;;;;;;;19.38;11.40;;;5.70;99.90;;;5.67;79.99;103181.13;4958206;29;20272;-68
2021/12/17 01:06:28;;;;;;;23.83;14.20;;;5.70;99.90;;;5.50;81.04;103177.03;4955843;29;20196;-69
2021/12/17 01:08:57;;;;;;;29.05;13.85;;;5.60;99.90;;;5.59;80.42;103176.34;4957335;28;20203;-68
2021/12/17 01:11:27;;;;;;;28.42;12.95;;;5.60;99.90;;;5.68;79.99;103170.28;4954466;28;20212;-68
2021/12/17 01:14:15;;;;;;;26.05;13.55;;;5.70;99.90;;;5.61;80.61;103170.88;4955931;29;20624;-68
2021/12/17 01:17:20;;;;;;;29.83;13.35;;;5.60;99.90;;;5.54;80.14;103157.03;4970632;28;20200;-71
2021/12/17 01:20:25;;;;;;;27.75;13.73;;;5.60;99.90;;;5.54;80.31;103173.16;4956558;29;20183;-69
2021/12/17 01:23:10;;;;;;;25.38;13.77;;;5.60;99.90;;;5.55;80.56;103177.56;4955680;28;20236;-69
2021/12/17 01:35:22;;;;;;;32.67;13.77;;;5.50;99.90;;;5.61;80.06;103178.94;4957217;29;20194;-68
2021/12/17 01:43:50;;;;;;;17.92;10.43;;;5.50;99.90;;;5.48;80.28;103187.03;4958511;28;20585;-69
2021/12/17 01:46:27;;;;;;;22.25;12.07;;;5.50;99.90;;;5.54;80.02;103189.28;4971348;28;20716;-69
2021/12/17 01:49:16;;;;;;;27.42;13.40;;;5.50;99.90;;;5.56;79.92;103176.59;4956977;28;20271;-70
2021/12/17 02:00:30;;;;;;;27.70;12.85;;;5.50;99.90;;;5.40;80.35;103170.63;4971255;28;20295;-70
2021/12/17 02:03:02;;;;;;;22.60;11.10;;;5.50;99.90;;;5.42;80.17;103168.66;4971141;28;20729;-68
2021/12/17 02:05:34;;;;;;;32.03;13.38;;;5.40;99.90;;;5.60;79.97;103164.63;4956359;29;20195;-69
2021/12/17 02:08:03;;;;;;;19.50;11.60;;;5.50;99.90;;;5.64;79.75;103162.56;4971717;28;20198;-68
2021/12/17 02:11:21;;;;;;;27.20;12.98;;;5.60;99.90;;;5.56;79.84;103155.09;4960743;28;20196;-69
2021/12/17 02:19:43;;;;;;;29.63;11.75;;;5.40;99.90;;;5.48;79.68;103162.84;4959995;29;20196;-69
2021/12/17 02:33:16;;;;;;;22.60;11.98;;;5.40;99.90;;;5.43;79.73;103158.78;4959749;29;20560;-69
2021/12/17 02:35:45;;;;;;;23.77;10.95;;;5.40;99.90;;;5.43;79.70;103169.53;4964169;28;20259;-70
2021/12/17 02:38:17;;;;;;;21.75;11.13;;;5.40;99.90;;;5.41;79.67;103155.38;4969020;28;20203;-69
2021/12/17 02:46:56;;;;;;;22.08;9.20;;;5.40;99.90;;;5.31;80.17;103165.94;4984934;28;20196;-67
2021/12/17 02:49:29;;;;;;;23.30;10.00;;;5.30;99.90;;;5.42;79.80;103157.94;4967344;29;20192;-70
2021/12/17 02:51:59;;;;;;;43.83;12.93;;;5.40;99.90;;;5.35;79.76;103162.06;4983022;28;20491;-69
2021/12/17 02:54:30;;;;;;;26.95;11.98;;;5.40;99.90;;;5.37;79.84;103159.28;4965669;28;20668;-68
2021/12/17 02:56:59;;;;;;;19.08;9.02;;;5.30;99.90;;;5.39;79.58;103152.81;4975838;28;20204;-70
2021/12/17 02:59:29;;;;;;;20.73;10.95;;;5.40;99.90;;;5.38;79.63;103150.22;4958946;28;20188;-68
2021/12/17 03:01:58;;;;;;;19.88;11.60;;;5.40;99.90;;;5.42;79.53;103157.94;4959468;28;20219;-70
2021/12/17 03:04:30;;;;;;;24.40;11.82;;;5.40;99.90;;;5.39;79.86;103147.44;4983041;28;20212;-69
2021/12/17 03:06:59;;;;;;;24.20;11.00;;;5.40;99.90;;;5.36;79.79;103149.50;4966643;28;20188;-69
2021/12/17 03:09:45;;;;;;;28.35;11.10;;;5.40;99.90;;;5.46;79.08;103147.84;4968777;28;20244;-69
2021/12/17 03:12:19;;;;;;;26.60;11.05;;;5.40;99.90;;;5.40;79.52;103148.28;4965695;28;20216;-68
2021/12/17 03:14:55;;;;;;;26.70;10.63;;;5.40;99.90;;;5.35;79.53;103154.00;4963400;28;20239;-67
2021/12/17 03:17:44;;;;;;;20.17;10.98;;;5.40;99.90;;;5.31;79.95;103146.28;4963915;28;20191;-71
2021/12/17 03:25:46;;;;;;;26.73;10.60;;;5.40;99.90;;;5.40;79.08;103154.53;4956053;29;20279;-68
2021/12/17 03:28:17;;;;;;;34.88;12.65;;;5.40;99.90;;;5.43;79.46;103151.59;4955428;29;20191;-70
2021/12/17 03:30:47;;;;;;;17.33;9.32;;;5.40;99.90;;;5.37;79.31;103138.66;4955294;28;20196;-70
2021/12/17 03:33:16;;;;;;;23.75;9.82;;;5.40;99.90;;;5.33;79.28;103141.66;4955030;29;20212;-68
2021/12/17 03:35:45;;;;;;;25.98;13.00;;;5.40;99.90;;;5.31;79.58;103133.72;4956203;28;20169;-69
2021/12/17 03:38:14;;;;;;;25.58;11.30;;;5.30;99.90;;;5.34;79.56;103133.50;4954790;28;20585;-68
2021/12/17 03:40:44;;;;;;;24.90;12.55;;;5.30;99.90;;;5.41;79.17;103133.91;4955226;29;20251;-68
2021/12/17 03:43:29;;;;;;;40.65;11.80;;;5.40;99.90;;;5.34;79.58;103128.13;4955359;29;20235;-69
2021/12/17 03:46:00;;;;;;;22.65;10.15;;;5.40;99.90;;;5.28;79.47;103133.09;4971410;28;20644;-69
2021/12/17 03:48:31;;;;;;;28.30;10.05;;;5.30;99.90;;;5.24;79.46;103122.56;4956044;28;20216;-70
2021/12/17 03:51:02;;;;;;;23.85;11.45;;;5.30;99.90;;;5.28;79.69;103115.13;4956942;28;20207;-70
2021/12/17 03:53:30;;;;;;;26.40;11.90;;;5.30;99.90;;;5.28;79.25;103112.44;4956582;29;20239;-69
2021/12/17 03:55:59;;;;;;;33.00;13.32;;;5.30;99.90;;;5.25;80.00;103120.75;4957846;29;20196;-69
2021/12/17 03:58:29;;;;;;;31.70;12.20;;;5.20;99.90;;;5.30;79.37;103129.31;4957855;28;20206;-69
2021/12/17 04:00:58;;;;;;;28.27;10.98;;;5.30;99.90;;;5.26;79.73;103127.84;4955719;29;20219;-69
2021/12/17 04:03:27;;;;;;;32.35;11.00;;;5.30;99.90;;;5.42;79.24;103131.06;4971227;28;20224;-69
2021/12/17 04:06:04;;;;;;;27.52;11.05;;;5.40;99.90;;;5.46;79.31;103121.84;4955384;28;20192;-68
2021/12/17 04:08:45;;;;;;;20.75;10.20;;;5.40;99.90;;;5.49;78.52;103136.84;4956075;28;20204;-69
2021/12/17 04:11:30;;;;;;;34.08;12.50;;;5.50;99.90;;;5.50;78.73;103128.69;4970580;28;20196;-70
2021/12/17 04:14:04;;;;;;;30.85;10.05;;;5.50;99.90;;;5.41;79.21;103126.69;4955609;28;20218;-69
2021/12/17 04:16:46;;;;;;;26.55;9.90;;;5.40;99.90;;;5.42;78.99;103120.34;4955071;29;20710;-69
2021/12/17 04:19:14;;;;;;;24.58;12.18;;;5.40;99.90;;;5.52;78.80;103132.09;4955264;29;20684;-69
2021/12/17 04:21:46;;;;;;;27.35;12.82;;;5.50;99.90;;;5.52;79.12;103140.16;4955881;29;20739;-69
2021/12/17 04:24:15;;;;;;;36.72;12.90;;;5.50;99.90;;;5.40;79.35;103146.47;4955765;29;20259;-69
2021/12/17 04:26:45;;;;;;;25.48;11.55;;;5.50;99.90;;;5.37;79.59;103144.03;4971491;28;20327;-68
2021/12/17 04:29:23;;;;;;;22.48;10.77;;;5.40;99.90;;;5.44;78.81;103150.63;4954982;28;20196;-68
2021/12/17 04:31:54;;;;;;;34.80;11.27;;;5.40;99.90;;;5.44;78.70;103150.63;4954257;28;20307;-69
2021/12/17 04:34:25;;;;;;;26.85;10.50;;;5.40;99.90;;;5.41;78.76;103134.75;4954804;29;20192;-68
2021/12/17 04:36:56;;;;;;;23.90;11.10;;;5.40;99.90;;;5.32;79.33;103130.06;4954748;29;20214;-69
2021/12/17 04:39:42;;;;;;;27.73;10.75;;;5.30;99.90;;;5.47;79.02;103126.22;4971273;28;20227;-67
2021/12/17 04:42:16;;;;;;;24.40;11.45;;;5.40;99.90;;;5.51;78.83;103133.09;4971365;28;20224;-67
2021/12/17 04:44:52;;;;;;;20.88;12.85;;;5.50;99.90;;;5.51;78.67;103133.09;4954949;29;20269;-68
2021/12/17 04:58:33;;;;;;;23.75;12.00;;;5.40;99.90;;;5.39;79.13;103149.25;4955824;28;20192;-69
2021/12/17 05:01:10;;;;;;;28.15;12.60;;;5.40;99.90;;;5.36;79.08;103149.50;4971914;28;20584;-68
2021/12/17 05:03:40;;;;;;;23.50;12.02;;;5.40;99.90;;;5.34;79.36;103151.41;4971047;28;20226;-68
2021/12/17 05:06:09;;;;;;;22.00;11.88;;;5.40;99.90;;;5.23;79.73;103152.19;4955418;28;20699;-68
2021/12/17 05:08:56;;;;;;;27.75;13.68;;;5.30;99.90;;;5.25;79.56;103150.28;4956562;29;20218;-70
2021/12/17 05:18:12;;;;;;;33.13;12.90;;;5.30;99.90;;;5.28;79.54;103147.34;4957485;28;20213;-68
2021/12/17 05:19:53;;;;;;;24.08;11.32;;;5.20;99.90;;;5.06;80.07;103145.41;4973182;28;20572;-68
2021/12/17 05:22:24;;;;;;;24.83;11.65;;;5.10;99.90;;;5.09;79.89;103147.00;4971416;28;20216;-69
2021/12/17 05:24:52;;;;;;;24.83;11.18;;;5.10;99.90;;;5.27;79.44;103148.34;4970727;28;20775;-69
2021/12/17 05:27:22;;;;;;;31.85;14.07;;;5.20;99.90;;;5.39;79.06;103157.31;4953632;29;20216;-66
2021/12/17 05:29:55;;;;;;;34.20;14.43;;;5.30;99.90;;;5.46;79.29;103147.84;4954524;29;20196;-68
2021/12/17 05:32:26;;;;;;;21.05;10.45;;;5.30;99.90;;;5.18;79.35;103143.66;4953639;28;20220;-70
2021/12/17 05:34:59;;;;;;;23.00;11.38;;;5.30;99.90;;;5.06;79.57;103148.09;4954615;28;20283;-69
2021/12/17 05:37:28;;;;;;;24.17;12.43;;;5.10;99.90;;;5.02;80.10;103154.66;4954023;29;20694;-69
2021/12/17 05:39:57;;;;;;;30.15;11.38;;;5.10;99.90;;;5.03;79.89;103160.88;4954541;29;20545;-69
2021/12/17 05:42:26;;;;;;;27.90;11.52;;;5.00;99.90;;;4.97;80.38;103145.22;4954185;29;20220;-68
2021/12/17 05:45:22;;;;;;;25.88;12.77;;;5.00;99.90;;;4.85;80.58;103157.69;4973436;28;20188;-67
2021/12/17 05:47:52;;;;;;;21.85;12.50;;;4.90;99.90;;;4.86;80.68;103158.53;4975320;28;20195;-71
2021/12/17 05:50:21;;;;;;;24.48;14.80;;;4.90;99.90;;;4.92;80.74;103153.59;4959869;28;20224;-68
2021/12/17 05:52:50;;;;;;;17.63;12.27;;;4.90;99.90;;;4.92;80.32;103163.47;4959062;29;20313;-69
2021/12/17 05:55:19;;;;;;;23.30;12.75;;;4.90;99.90;;;4.92;80.15;103148.22;4961456;29;20199;-69
2021/12/17 05:57:48;;;;;;;24.88;11.40;;;4.90;99.90;;;4.96;80.26;103144.34;4978147;28;20224;-69
2021/12/17 06:00:18;;;;;;;25.73;12.25;;;5.00;99.90;;;4.99;80.14;103157.53;4975410;28;20600;-69
2021/12/17 06:02:48;;;;;;;29.67;13.30;;;5.00;99.90;;;5.09;79.66;103158.59;4963981;23;20232;-66
2021/12/17 06:05:32;;;;;;;30.63;13.10;;;5.10;99.90;;;4.93;79.86;103167.88;4936328;29;20188;-65
2021/12/17 06:08:02;;;;;;;29.35;11.85;;;5.00;99.90;;;4.78;80.89;103162.66;4936335;29;20579;-66
2021/12/17 06:10:31;;;;;;;19.00;11.48;;;4.90;99.90;;;4.84;80.60;103171.22;4936650;29;20291;-65
2021/12/17 06:13:00;;;;;;;24.10;9.15;;;4.80;99.90;;;4.81;80.30;103169.59;4944749;29;20246;-67
2021/12/17 06:15:30;;;;;;;24.52;11.55;;;4.80;99.90;;;4.68;80.74;103172.31;4955682;29;20196;-66
2021/12/17 06:17:58;;;;;;;19.52;11.75;;;4.80;99.90;;;4.85;80.69;103186.34;4955829;29;20255;-66
2021/12/17 06:20:28;;;;;;;27.80;10.77;;;4.80;99.90;;;4.86;80.81;103185.38;4956238;29;20226;-66
2021/12/17 06:23:01;;;;;;;22.27;11.40;;;4.80;99.90;;;4.86;80.43;103185.38;4955523;29;20587;-66
2021/12/17 06:25:32;;;;;;;19.73;8.65;;;4.80;99.90;;;4.80;80.28;103187.53;4947200;28;20216;-65
2021/12/17 06:28:01;;;;;;;18.88;9.70;;;4.80;99.90;;;4.73;80.89;103180.03;4953698;28;20201;-65
2021/12/17 06:30:30;;;;;;;30.77;11.65;;;4.80;99.90;;;4.78;81.07;103184.09;4938650;28;20556;-67
2021/12/17 06:32:59;;;;;;;33.50;11.23;;;4.80;99.90;;;4.85;80.68;103186.34;4941431;29;20704;-65
2021/12/17 06:35:31;;;;;;;26.35;11.35;;;4.90;99.90;;;5.07;80.18;103191.91;4942795;29;20197;-66
2021/12/17 06:38:04;;;;;;;27.52;11.85;;;5.00;99.90;;;4.93;80.39;103194.72;4918916;29;20201;-66
2021/12/17 06:40:35;;;;;;;20.58;10.00;;;5.00;99.90;;;4.95;80.21;103192.75;4917148;29;20194;-68
2021/12/17 06:43:03;;;;;;;20.90;9.73;;;5.00;99.90;;;5.01;79.95;103201.25;4949803;29;20223;-66
2021/12/17 06:45:52;;;;;;;29.13;9.80;;;5.00;99.90;;;4.90;80.17;103201.13;4944570;29;20236;-66
2021/12/17 06:48:25;;;;;;;21.40;10.05;;;5.00;99.90;;;4.97;79.91;103205.13;4937747;29;20208;-67
2021/12/17 07:00:19;;;;;;;23.42;8.98;;;5.00;99.90;;;4.94;79.48;103196.44;4879540;29;20622;-66
2021/12/17 07:06:56;;;;;;;16.25;9.75;;;5.00;99.90;;;5.00;79.71;103204.03;4953210;28;20215;-66
2021/12/17 07:32:42;;;;;;;22.27;9.95;;;5.10;99.90;;;5.07;79.26;103221.41;4949778;29;20255;-67
2021/12/17 07:40:59;;;;;;;21.40;9.82;;;5.10;99.90;;;5.11;79.38;103217.53;4946018;28;20246;-67
2021/12/17 07:43:37;;;;;;;27.58;11.55;;;5.10;99.90;;;5.36;79.29;103206.75;4947912;28;20224;-66
2021/12/17 07:46:14;;;;;;;17.70;9.57;;;5.20;99.90;;;5.27;78.78;103214.63;4945547;29;20279;-67
2021/12/17 07:48:42;;;;;;;20.08;10.18;;;5.20;99.90;;;5.14;79.56;103201.19;4945823;28;20690;-65
2021/12/17 07:51:18;;;;;;;15.40;9.43;;;5.20;99.90;;;5.22;78.87;103196.16;4944773;29;20204;-64
2021/12/17 07:53:56;;;;;;;21.88;9.65;;;5.20;99.90;;;5.27;78.98;103191.31;4936975;29;20226;-68
2021/12/17 07:56:37;;;;;;;23.00;10.20;;;5.30;99.90;;;5.16;79.33;103192.09;4941984;29;20739;-67
2021/12/17 07:59:21;;;;;;;20.13;9.65;;;5.20;99.90;;;5.26;79.01;103189.59;4938466;29;20236;-67
2021/12/17 08:01:50;;;;;;;22.88;9.60;;;5.30;99.90;;;5.35;78.56;103175.47;4943850;29;20196;-67
2021/12/17 08:04:25;;;;;;;19.00;9.00;;;5.30;99.90;;;5.28;78.76;103174.19;4943612;28;20229;-66
2021/12/17 08:07:02;;;;;;;20.33;9.02;;;5.30;99.90;;;5.31;79.16;103178.50;4944581;29;20639;-66
2021/12/17 08:09:34;;;;;;;26.98;13.13;;;5.30;99.90;;;5.27;78.68;103175.19;4954368;28;20211;-67
2021/12/17 08:12:09;;;;;;;28.15;11.63;;;5.30;99.90;;;5.30;79.27;103168.72;4941760;28;20204;-66
2021/12/17 08:14:52;;;;;;;23.70;8.98;;;5.30;99.90;;;5.36;79.03;103179.03;4953829;28;20218;-65
2021/12/17 08:17:46;;;;;;;20.05;10.15;;;5.30;99.90;;;5.46;78.66;103185.44;4950749;28;20197;-66
2021/12/17 08:24:16;;;;;;;18.83;9.55;;;5.30;99.90;;;5.49;78.64;103191.44;4934306;29;20216;-66
2021/12/17 08:26:57;;;;;;;18.45;9.63;;;5.40;99.90;;;5.29;79.10;103180.44;4933937;29;20749;-66
2021/12/17 08:29:43;;;;;;;13.35;8.48;;;5.30;99.90;;;5.52;78.83;103175.06;4951926;28;20235;-67
2021/12/17 08:32:14;;;;;;;25.23;9.98;;;5.40;99.90;;;5.56;78.24;103176.59;4953775;28;20451;-66
2021/12/17 08:34:55;;;;;;;18.20;8.93;;;5.50;99.90;;;5.39;78.75;103187.72;4946644;28;20195;-67
2021/12/17 08:37:24;;;;;;;19.20;7.90;;;5.40;99.90;;;5.29;79.23;103183.97;4934496;29;20701;-66
2021/12/17 08:39:55;;;;;;;21.55;9.60;;;5.30;99.90;;;5.28;79.25;103192.16;4935659;29;20219;-67
2021/12/17 08:42:40;;;;;;;16.58;10.10;;;5.30;99.90;;;5.36;79.12;103193.31;4934532;29;20729;-68
2021/12/17 08:45:11;;;;;;;20.38;9.40;;;5.30;99.90;;;5.43;79.04;103180.28;4931441;29;20275;-67
2021/12/17 08:47:51;;;;;;;19.23;7.72;;;5.40;99.90;;;5.41;78.44;103180.41;4935301;29;20223;-66
2021/12/17 08:50:31;;;;;;;20.10;8.50;;;5.40;99.90;;;5.37;78.84;103186.97;4934029;29;20204;-66
2021/12/17 08:53:00;;;;;;;27.48;9.30;;;5.40;99.90;;;5.45;78.23;103184.59;4933881;29;20383;-67
2021/12/17 08:55:28;;;;;;;18.27;8.70;;;5.40;99.90;;;5.36;78.98;103190.63;4931026;29;20211;-68
2021/12/17 08:57:57;;;;;;;21.23;8.10;;;5.40;99.90;;;5.44;78.97;103182.00;4935371;29;20197;-67
2021/12/17 09:00:25;;;;;;;13.52;7.60;;;5.40;99.90;;;5.53;78.67;103195.59;4933933;29;20605;-66
2021/12/17 09:03:04;;;;;;;22.75;9.48;;;5.50;99.90;;;5.76;78.14;103203.78;4949681;29;20220;-66
2021/12/17 09:05:47;;;;;;;24.75;8.45;;;5.60;99.90;;;5.57;78.79;103197.09;4938737;29;20208;-67
2021/12/17 09:08:21;;;;;;;28.33;8.35;;;5.60;99.90;;;5.45;78.91;103206.06;4952929;28;20231;-66
2021/12/17 09:10:55;;;;;;;15.60;8.85;;;5.50;99.90;;;5.56;78.88;103202.59;4971172;28;20223;-67
2021/12/17 09:13:36;;;;;;;25.52;8.18;;;5.60;99.90;;;5.60;78.09;103209.44;4954391;29;20212;-65
2021/12/17 09:16:06;;;;;;;18.98;6.53;;;5.60;99.90;;;5.59;78.00;103197.84;4938035;28;20227;-66
2021/12/17 09:18:38;;;;;;;16.52;7.20;;;5.60;99.90;;;5.42;78.44;103208.97;4941416;28;21956;-66
2021/12/17 09:21:31;;;;;;;18.90;8.20;;;5.50;99.90;;;5.54;78.26;103216.13;4940833;28;20197;-67
2021/12/17 09:24:06;;;;;;;17.80;7.43;;;5.50;99.90;;;5.60;77.67;103218.38;4933918;29;20212;-66
2021/12/17 09:26:56;;;;;;;16.73;6.93;;;5.60;99.90;;;5.71;77.40;103224.78;4916159;29;20229;-65
2021/12/17 09:29:31;;;;;;;18.48;6.80;;;5.70;99.90;;;5.63;77.72;103234.25;4969161;28;20195;-67
2021/12/17 09:32:00;;;;;;;19.10;8.10;;;5.70;99.90;;;5.85;77.32;103230.84;4953847;28;20204;-66
2021/12/17 09:34:30;;;;;;;25.17;9.07;;;5.70;99.90;;;5.77;76.81;103226.97;4949766;28;20204;-66
2021/12/17 09:36:58;;;;;;;11.82;6.50;;;5.80;99.90;;;5.86;76.89;103218.22;4934435;29;20193;-66
2021/12/17 09:39:26;;;;;;;13.27;7.20;;;5.80;99.90;;;5.77;77.10;103217.09;4934925;29;20279;-66
2021/12/17 09:41:56;;;;;;;14.48;7.53;;;5.80;99.90;;;5.73;77.50;103212.06;4934398;29;20279;-67
2021/12/17 09:44:24;;;;;;;17.17;6.55;;;5.80;99.90;;;5.73;77.14;103220.13;4947287;29;20273;-65
2021/12/17 09:46:57;;;;;;;15.55;8.60;;;5.70;99.90;;;5.90;76.85;103226.00;4941991;29;20250;-66
2021/12/17 09:49:26;;;;;;;17.40;5.60;;;5.80;99.90;;;5.87;76.39;103222.66;4937128;29;20208;-66
2021/12/17 09:51:56;;;;;;;16.17;6.30;;;5.80;99.90;;;5.76;76.61;103223.44;4942946;28;20196;-65
2021/12/17 09:54:27;;;;;;;16.65;6.50;;;5.80;99.90;;;5.68;77.57;103226.72;4944110;28;20203;-67
2021/12/17 09:56:55;;;;;;;15.30;6.55;;;5.70;99.90;;;5.76;77.12;103227.97;4947132;29;20190;-66
2021/12/17 09:59:24;;;;;;;19.65;7.00;;;5.70;99.90;;;5.66;77.80;103225.94;4942369;28;20239;-66
2021/12/17 10:01:52;;;;;;;13.07;6.03;;;5.70;99.90;;;5.73;77.50;103225.50;4941670;29;20185;-66
2021/12/17 10:04:28;;;;;;;25.05;8.35;;;5.80;99.90;;;5.91;76.96;103224.16;4931483;29;20240;-66
2021/12/17 10:07:22;;;;;;;21.80;6.50;;;5.80;99.90;;;5.97;76.48;103229.06;4946437;29;20200;-65
2021/12/17 10:09:54;;;;;;;11.27;7.00;;;5.90;99.90;;;6.01;76.15;103230.56;4933973;29;20217;-67
2021/12/17 10:12:25;;;;;;;21.40;7.43;;;5.90;99.90;;;5.83;76.64;103226.53;4942748;28;20771;-66
2021/12/17 10:15:08;;;;;;;17.20;5.88;;;5.90;99.90;;;5.82;76.98;103232.88;4944223;29;20689;-66
2021/12/17 10:17:49;;;;;;;12.27;6.13;;;5.80;99.90;;;5.90;76.76;103227.84;4947853;29;20215;-65
2021/12/17 10:20:19;;;;;;;14.35;6.20;;;5.90;99.90;;;5.99;76.90;103240.59;4937804;29;20221;-66
2021/12/17 10:22:58;;;;;;;11.75;6.45;;;5.90;99.90;;;5.89;77.32;103235.03;4935369;29;20221;-66
2021/12/17 10:25:29;;;;;;;17.40;6.75;;;5.90;99.90;;;5.84;77.58;103234.50;4932595;29;20204;-66
2021/12/17 10:28:04;;;;;;;18.50;6.90;;;5.90;99.90;;;6.02;77.09;103238.50;4944122;29;20204;-66
2021/12/17 10:30:36;;;;;;;30.13;18.63;;;6.00;99.90;;;5.97;77.27;103238.00;4958258;28;20239;-65
2021/12/17 10:33:08;;;;;;;15.25;6.47;;;6.00;99.90;;;6.21;77.20;103231.72;4966830;28;20653;-65
2021/12/17 10:35:44;;;;;;;13.82;6.72;;;6.00;99.90;;;6.07;76.95;103239.03;4946003;28;20600;-65
2021/12/17 10:38:17;;;;;;;50.83;39.80;;;6.10;99.90;;;6.11;76.78;103227.06;4938371;29;20192;-65
2021/12/17 10:40:57;;;;;;;13.20;8.45;;;6.10;99.90;;;6.09;75.87;103222.78;4939187;29;20184;-65
2021/12/17 10:43:32;;;;;;;17.98;9.18;;;6.10;99.90;;;6.06;75.87;103223.00;4939340;29;20231;-66
2021/12/17 10:46:07;;;;;;;18.17;5.55;;;6.10;99.90;;;6.01;76.44;103225.19;4937803;29;20208;-66
2021/12/17 10:48:49;;;;;;;17.88;6.20;;;6.00;99.90;;;6.13;76.30;103228.78;4939295;29;20192;-64
2021/12/17 10:51:34;;;;;;;15.48;6.20;;;6.10;99.90;;;6.12;76.04;103222.53;4960098;28;20565;-66
2021/12/17 10:54:07;;;;;;;18.35;6.72;;;6.10;99.90;;;6.17;75.86;103227.56;4922576;29;20213;-66
2021/12/17 10:56:40;;;;;;;17.63;6.70;;;6.10;99.90;;;6.25;75.58;103217.06;4942394;29;20197;-65
2021/12/17 10:59:13;;;;;;;13.63;5.53;;;6.20;99.90;;;6.22;75.14;103207.41;4953595;29;20196;-65
2021/12/17 11:01:45;;;;;;;17.77;6.25;;;6.20;99.90;;;6.05;75.89;103222.13;4955144;29;20209;-65
2021/12/17 11:04:23;;;;;;;20.33;8.02;;;6.10;99.90;;;6.12;75.86;103225.22;4952813;29;20212;-65
2021/12/17 11:06:55;;;;;;;15.35;9.98;;;6.10;99.90;;;6.19;75.38;103215.75;4949081;29;20241;-67
2021/12/17 11:09:41;;;;;;;12.82;6.93;;;6.10;99.90;;;6.35;74.84;103218.09;4952660;29;20224;-66
2021/12/17 11:12:33;;;;;;;15.68;5.68;;;6.20;99.90;;;6.46;74.29;103232.44;4957581;28;20264;-66
2021/12/17 11:15:19;;;;;;;18.13;6.25;;;6.30;99.90;;;6.35;74.70;103229.69;4946594;29;20200;-65
2021/12/17 11:17:51;;;;;;;12.98;5.55;;;6.40;99.90;;;6.31;74.35;103222.84;4946612;29;20200;-65
2021/12/17 11:20:25;;;;;;;8.57;4.70;;;6.30;99.90;;;6.34;74.46;103225.28;4952463;28;20252;-65
2021/12/17 11:23:03;;;;;;;20.13;5.20;;;6.30;99.90;;;6.51;73.63;103207.84;4950038;28;20208;-65
2021/12/17 11:25:35;;;;;;;12.75;5.55;;;6.40;99.90;;;6.34;73.54;103211.84;4950650;28;20593;-66
2021/12/17 11:28:07;;;;;;;19.98;5.63;;;6.30;99.90;;;6.32;73.92;103211.13;4958089;28;20196;-66
2021/12/17 11:30:39;;;;;;;25.05;6.82;;;6.30;99.90;;;6.29;74.11;103210.50;4953679;29;20216;-66
2021/12/17 11:33:08;;;;;;;10.93;6.18;;;6.30;99.90;;;6.35;73.87;103210.00;4946431;29;20306;-66
2021/12/17 11:35:42;;;;;;;14.23;5.25;;;6.30;99.90;;;6.43;73.52;103211.16;4940104;29;20184;-65
2021/12/17 11:38:15;;;;;;;11.93;6.13;;;6.30;99.90;;;6.50;72.90;103208.81;4954737;29;20203;-65
2021/12/17 11:40:52;;;;;;;13.80;6.70;;;6.40;99.90;;;6.29;73.02;103219.44;4960232;28;20191;-64
2021/12/17 11:43:48;;;;;;;13.80;5.90;;;6.30;99.90;;;6.34;72.93;103217.22;4954135;29;20219;-66
2021/12/17 11:46:22;;;;;;;8.80;4.63;;;6.30;99.90;;;6.33;73.58;103220.06;4958334;29;20204;-66
2021/12/17 11:48:54;;;;;;;10.55;4.57;;;6.40;99.90;;;6.48;73.00;103227.81;4941515;29;20540;-66
2021/12/17 11:51:27;;;;;;;15.00;5.57;;;6.40;99.90;;;6.37;73.23;103227.75;4949331;29;20634;-64
2021/12/17 11:54:06;;;;;;;16.55;4.95;;;6.40;99.90;;;6.46;73.19;103220.81;4943360;29;20716;-66
2021/12/17 11:56:46;;;;;;;16.75;5.97;;;6.40;99.90;;;6.50;73.17;103222.28;4941368;29;20211;-67
2021/12/17 11:59:38;;;;;;;7.82;4.20;;;6.50;99.90;;;6.22;73.26;103228.94;4945854;28;20188;-67
2021/12/17 12:02:15;;;;;;;15.95;5.63;;;6.30;99.90;;;6.28;73.42;103222.22;4945304;29;20210;-66
2021/12/17 12:04:53;;;;;;;17.73;5.95;;;6.30;99.90;;;6.36;72.89;103223.34;4947861;23;20277;-71
2021/12/17 12:07:37;;;;;;;9.50;4.40;;;6.40;99.90;;;6.53;72.96;103227.44;4935620;29;20220;-70
2021/12/17 12:10:22;;;;;;;13.57;4.45;;;6.40;99.90;;;6.48;72.46;103238.56;4927958;29;20232;-70
2021/12/17 12:13:01;;;;;;;12.93;5.80;;;6.50;99.90;;;6.53;72.88;103222.88;4926884;29;20200;-70
2021/12/17 12:15:38;;;;;;;11.40;4.57;;;6.40;99.90;;;6.52;72.17;103223.88;4925488;29;20274;-70
2021/12/17 12:18:42;;;;;;;12.05;5.80;;;6.50;99.90;;;6.45;72.85;103225.31;4932371;29;20200;-71
2021/12/17 12:21:15;;;;;;;12.73;5.53;;;6.50;99.90;;;6.54;72.79;103224.59;4927530;29;20241;-70
2021/12/17 12:23:54;;;;;;;10.88;5.60;;;6.40;99.90;;;6.64;72.18;103213.13;4921998;29;20241;-69
2021/12/17 12:26:48;;;;;;;12.43;5.55;;;6.50;99.90;;;6.64;72.87;103223.88;4925831;29;20192;-71
2021/12/17 12:29:27;;;;;;;10.77;4.75;;;6.50;99.90;;;6.65;71.79;103217.53;4932809;29;20194;-71
2021/12/17 12:32:17;;;;;;;11.52;4.28;;;6.60;99.90;;;6.59;71.26;103218.88;4938694;29;20701;-70
2021/12/17 12:34:45;;;;;;;10.77;4.22;;;6.60;99.90;;;6.49;70.85;103215.19;4932382;29;20264;-70
2021/12/17 12:37:28;;;;;;;11.95;4.47;;;6.50;99.90;;;6.38;71.33;103218.72;4937813;29;20229;-69
2021/12/17 12:40:16;;;;;;;9.45;4.22;;;6.50;99.90;;;6.57;70.77;103225.34;4936057;29;20626;-70
2021/12/17 12:42:56;;;;;;;11.52;4.22;;;6.50;99.90;;;6.46;71.26;103220.81;4936470;29;20206;-70
2021/12/17 12:45:32;;;;;;;7.63;3.83;;;6.40;1.00;;;6.46;71.30;103227.03;4926127;29;20186;-69
2021/12/17 12:48:01;;;;;;;11.82;4.82;;;6.50;1.00;;;6.41;71.26;103220.31;4917648;29;20220;-69
2021/12/17 12:50:35;;;;;;;24.85;5.18;;;6.40;1.00;;;6.45;71.86;103219.94;4918903;29;20289;-70
2021/12/17 12:53:11;;;;;;;10.38;5.38;;;6.50;1.00;;;6.56;71.37;103211.03;4917591;29;20269;-72
2021/12/17 12:55:44;;;;;;;11.98;4.05;;;6.50;1.00;;;6.44;71.95;103210.16;4917950;29;20567;-70
2021/12/17 12:58:18;;;;;;;10.38;4.25;;;6.50;1.00;;;6.58;71.68;103208.25;4917920;29;20178;-70
2021/12/17 13:00:54;;;;;;;13.68;5.20;;;6.50;1.00;;;6.58;71.45;103208.25;4918950;29;20189;-70
2021/12/17 13:03:28;;;;;;;11.40;5.03;;;6.50;1.00;;;6.66;70.91;103193.22;4933821;29;20240;-71
2021/12/17 13:06:00;;;;;;;12.00;4.90;;;6.60;1.00;;;6.59;70.31;103193.78;4919469;29;20661;-71
2021/12/17 13:08:31;;;;;;;13.20;4.38;;;6.60;1.00;;;6.57;70.70;103199.31;4919026;29;20285;-72
2021/12/17 13:11:07;;;;;;;11.52;4.65;;;6.50;1.00;;;6.64;71.04;103194.28;4920151;29;20252;-69
2021/12/17 13:13:44;;;;;;;10.02;5.05;;;6.60;1.00;;;6.64;70.89;103196.97;4922620;29;20239;-70
2021/12/17 13:16:20;;;;;;;11.95;5.00;;;6.60;1.00;;;6.74;70.89;103212.28;4923739;29;20589;-71
2021/12/17 13:21:47;;;;;;;13.32;5.00;;;6.70;1.00;;;6.65;71.03;103220.22;4925447;29;20204;-69
2021/12/17 13:24:23;;;;;;;8.48;4.43;;;6.70;1.00;;;6.64;71.87;103215.81;4936128;29;20228;-69